| time (UTC) | temp C | wind direction | speed KPH | gust KPH | rain 1hr cm | rain 24hr cm | rain mn cm | humidity % | barometer mb |
| 20260503182006 | 15 | 263 | 6.4 | 14.5 | 0.00 | 0.00 | 0.00 | 70 | 1013.2 |
| 20260503181505 | 15 | 271 | 6.4 | 14.5 | 0.00 | 0.00 | 0.00 | 69 | 1013.2 |
| 20260503181005 | 15 | 248 | 6.4 | 11.3 | 0.00 | 0.00 | 0.00 | 69 | 1013.1 |
| 20260503180505 | 15 | 240 | 6.4 | 16.1 | 0.00 | 0.00 | 0.00 | 69 | 1013.1 |
| 20260503180007 | 15 | 201 | 6.4 | 16.1 | 0.00 | 0.00 | 0.00 | 70 | 1013.0 |
| 20260503175504 | 15 | 283 | 3.2 | 14.5 | 0.00 | 0.00 | 0.00 | 70 | 1013.1 |
| 20260503175006 | 15 | 275 | 6.4 | 14.5 | 0.00 | 0.00 | 0.00 | 70 | 1013.2 |
| 20260503174505 | 15 | 187 | 4.8 | 11.3 | 0.00 | 0.00 | 0.00 | 71 | 1013.2 |
| 20260503174006 | 15 | 213 | 3.2 | 9.7 | 0.00 | 0.00 | 0.00 | 71 | 1013.3 |
| 20260503173504 | 15 | 170 | 1.6 | 9.7 | 0.00 | 0.00 | 0.00 | 72 | 1013.2 |
| 20260503172505 | 14 | 284 | 8.0 | 12.9 | 0.00 | 0.00 | 0.00 | 74 | 1013.3 |
| 20260503171504 | 13 | 257 | 4.8 | 9.7 | 0.00 | 0.00 | 0.00 | 75 | 1013.2 |
| 20260503171005 | 13 | 332 | 3.2 | 11.3 | 0.00 | 0.00 | 0.00 | 75 | 1013.2 |
| 20260503170505 | 13 | 262 | 3.2 | 11.3 | 0.00 | 0.00 | 0.00 | 75 | 1013.0 |
| 20260503151005 | 12 | 266 | 1.6 | 4.8 | 0.00 | 0.00 | 0.00 | 82 | 1012.5 |
| 20260503150504 | 12 | 270 | 1.6 | 8.0 | 0.00 | 0.00 | 0.00 | 82 | 1012.5 |
| 20260503131005 | 12 | 225 | 0.0 | 3.2 | 0.00 | 0.00 | 0.00 | 84 | 1011.0 |
| 20260503130504 | 12 | 225 | 1.6 | 3.2 | 0.00 | 0.00 | 0.00 | 84 | 1010.9 |
| 20260503110500 | 12 | 255 | 1.6 | 4.8 | 0.00 | 0.00 | 0.00 | 83 | 1011.1 |
| 20260503090500 | 12 | 215 | 1.6 | 6.4 | 0.00 | 0.00 | 0.00 | 83 | 1011.4 |
| 20260503081459 | 12 | 207 | 1.6 | 4.8 | 0.00 | 0.00 | 0.00 | 83 | 1011.8 |
| 20260503081004 | 12 | 267 | 3.2 | 4.8 | 0.00 | 0.00 | 0.00 | 83 | 1011.7 |
| 20260503080500 | 12 | 267 | 0.0 | 4.8 | 0.00 | 0.00 | 0.00 | 83 | 1011.8 |
| 20260503072005 | 12 | 247 | 3.2 | 9.7 | 0.00 | 0.00 | 0.00 | 82 | 1011.9 |
| 20260503071505 | 12 | 255 | 4.8 | 9.7 | 0.00 | 0.00 | 0.00 | 82 | 1011.9 |
| 20260503071005 | 12 | 266 | 0.0 | 4.8 | 0.00 | 0.00 | 0.00 | 82 | 1011.9 |
| 20260503054504 | 11 | 274 | 6.4 | 16.1 | 0.00 | 0.00 | 0.00 | 80 | 1012.2 |
| 20260503054005 | 11 | 275 | 6.4 | 14.5 | 0.00 | 0.00 | 0.00 | 80 | 1012.1 |
| 20260503053504 | 11 | 275 | 6.4 | 11.3 | 0.00 | 0.00 | 0.00 | 80 | 1012.2 |
| 20260503053005 | 11 | 304 | 4.8 | 12.9 | 0.00 | 0.00 | 0.00 | 80 | 1012.2 |
| 20260503052504 | 11 | 279 | 4.8 | 14.5 | 0.00 | 0.00 | 0.00 | 80 | 1012.3 |
| 20260503052005 | 11 | 244 | 6.4 | 14.5 | 0.00 | 0.00 | 0.00 | 80 | 1012.3 |
| 20260503051505 | 11 | 253 | 6.4 | 12.9 | 0.00 | 0.00 | 0.00 | 80 | 1012.4 |
| 20260503051004 | 11 | 171 | 6.4 | 12.9 | 0.00 | 0.00 | 0.00 | 80 | 1012.3 |
| 20260503050504 | 11 | 295 | 6.4 | 12.9 | 0.00 | 0.00 | 0.00 | 80 | 1012.3 |
| 20260503050006 | 11 | 286 | 4.8 | 9.7 | 0.00 | 0.00 | 0.00 | 80 | 1012.4 |
| 20260503045005 | 11 | 295 | 8.0 | 14.5 | 0.00 | 0.00 | 0.00 | 80 | 1012.3 |
| 20260503044505 | 11 | 261 | 6.4 | 12.9 | 0.00 | 0.00 | 0.00 | 80 | 1012.4 |
| 20260503044004 | 11 | 211 | 3.2 | 14.5 | 0.00 | 0.00 | 0.00 | 80 | 1012.5 |
| 20260503043504 | 11 | 263 | 4.8 | 16.1 | 0.00 | 0.00 | 0.00 | 80 | 1012.3 |
| 20260503043005 | 11 | 284 | 4.8 | 14.5 | 0.00 | 0.00 | 0.00 | 80 | 1012.1 |
| 20260503042005 | 11 | 271 | 4.8 | 12.9 | 0.00 | 0.00 | 0.00 | 79 | 1012.2 |
| 20260503041504 | 11 | 253 | 3.2 | 16.1 | 0.00 | 0.00 | 0.00 | 79 | 1012.2 |
| 20260503041005 | 11 | 273 | 6.4 | 16.1 | 0.00 | 0.00 | 0.00 | 79 | 1012.1 |
| 20260503035505 | 12 | 257 | 8.0 | 19.3 | 0.00 | 0.00 | 0.00 | 80 | 1011.8 |
| 20260503035004 | 12 | 229 | 9.7 | 17.7 | 0.00 | 0.00 | 0.00 | 80 | 1011.7 |
| 20260503034504 | 12 | 247 | 8.0 | 14.5 | 0.00 | 0.00 | 0.00 | 80 | 1011.7 |
| 20260503034005 | 12 | 241 | 8.0 | 17.7 | 0.00 | 0.00 | 0.00 | 80 | 1011.8 |
| 20260503033504 | 12 | 245 | 6.4 | 14.5 | 0.00 | 0.00 | 0.00 | 80 | 1011.6 |
| 20260503033007 | 12 | 290 | 4.8 | 17.7 | 0.00 | 0.00 | 0.00 | 80 | 1011.7 |
| 20260503032505 | 12 | 223 | 4.8 | 12.9 | 0.00 | 0.00 | 0.00 | 80 | 1011.6 |
| 20260503032005 | 12 | 238 | 4.8 | 17.7 | 0.00 | 0.00 | 0.00 | 80 | 1011.6 |
| 20260503031504 | 12 | 223 | 8.0 | 17.7 | 0.00 | 0.00 | 0.00 | 79 | 1011.5 |
| 20260503031005 | 12 | 277 | 8.0 | 12.9 | 0.00 | 0.00 | 0.00 | 79 | 1011.5 |
| 20260503030006 | 12 | 290 | 6.4 | 17.7 | 0.00 | 0.00 | 0.00 | 79 | 1011.5 |
| 20260503025505 | 12 | 233 | 9.7 | 19.3 | 0.00 | 0.00 | 0.00 | 79 | 1011.5 |
| 20260503025005 | 12 | 271 | 9.7 | 19.3 | 0.00 | 0.00 | 0.00 | 79 | 1011.5 |
| 20260503024504 | 12 | 277 | 9.7 | 17.7 | 0.00 | 0.00 | 0.00 | 78 | 1011.5 |
| 20260503024004 | 12 | 293 | 8.0 | 17.7 | 0.00 | 0.00 | 0.00 | 78 | 1011.5 |
| 20260503023005 | 12 | 241 | 11.3 | 22.5 | 0.00 | 0.00 | 0.00 | 78 | 1011.5 |
| 20260503022505 | 12 | 236 | 9.7 | 17.7 | 0.00 | 0.00 | 0.00 | 77 | 1011.5 |
| 20260503022004 | 12 | 259 | 8.0 | 19.3 | 0.00 | 0.00 | 0.00 | 77 | 1011.4 |
| 20260503021504 | 12 | 252 | 9.7 | 19.3 | 0.00 | 0.00 | 0.00 | 77 | 1011.4 |
| 20260503021004 | 13 | 234 | 9.7 | 20.9 | 0.00 | 0.00 | 0.00 | 76 | 1011.4 |
| 20260503020504 | 13 | 195 | 11.3 | 22.5 | 0.00 | 0.00 | 0.00 | 76 | 1011.4 |
| 20260503020006 | 13 | 236 | 11.3 | 22.5 | 0.00 | 0.00 | 0.00 | 75 | 1011.3 |
| 20260503015505 | 13 | 270 | 9.7 | 22.5 | 0.00 | 0.00 | 0.00 | 75 | 1011.3 |
| 20260503015005 | 13 | 237 | 9.7 | 22.5 | 0.00 | 0.00 | 0.00 | 75 | 1011.4 |
| 20260503014504 | 13 | 229 | 12.9 | 27.4 | 0.00 | 0.00 | 0.00 | 75 | 1011.5 |
| 20260503013504 | 13 | 232 | 14.5 | 24.1 | 0.00 | 0.00 | 0.00 | 74 | 1011.4 |
| 20260503013005 | 13 | 277 | 14.5 | 25.7 | 0.00 | 0.00 | 0.00 | 73 | 1011.5 |
| 20260503012505 | 14 | 198 | 14.5 | 25.7 | 0.00 | 0.00 | 0.00 | 73 | 1011.3 |
| 20260503012005 | 14 | 231 | 11.3 | 19.3 | 0.00 | 0.00 | 0.00 | 72 | 1011.4 |
| 20260503011504 | 14 | 236 | 14.5 | 25.7 | 0.00 | 0.00 | 0.00 | 72 | 1011.4 |
| 20260503011005 | 14 | 235 | 12.9 | 25.7 | 0.00 | 0.00 | 0.00 | 73 | 1011.4 |
| 20260503010504 | 14 | 216 | 12.9 | 25.7 | 0.00 | 0.00 | 0.00 | 73 | 1011.3 |
| 20260503010006 | 14 | 269 | 14.5 | 30.6 | 0.00 | 0.00 | 0.00 | 72 | 1011.3 |
| 20260503005505 | 14 | 227 | 16.1 | 27.4 | 0.00 | 0.00 | 0.00 | 71 | 1011.4 |
| 20260503004005 | 15 | 271 | 11.3 | 22.5 | 0.00 | 0.00 | 0.00 | 70 | 1011.4 |
| 20260503003504 | 15 | 235 | 8.0 | 27.4 | 0.00 | 0.00 | 0.00 | 70 | 1011.4 |
| 20260503003005 | 15 | 236 | 11.3 | 27.4 | 0.00 | 0.00 | 0.00 | 69 | 1011.4 |
| 20260503002504 | 16 | 223 | 11.3 | 24.1 | 0.00 | 0.00 | 0.00 | 69 | 1011.4 |
| 20260503002007 | 16 | 216 | 12.9 | 24.1 | 0.00 | 0.00 | 0.00 | 68 | 1011.4 |
| 20260503001504 | 16 | 264 | 8.0 | 17.7 | 0.00 | 0.00 | 0.00 | 68 | 1011.5 |
| 20260503001005 | 16 | 180 | 9.7 | 19.3 | 0.00 | 0.00 | 0.00 | 68 | 1011.6 |
| 20260503000504 | 16 | 230 | 11.3 | 19.3 | 0.00 | 0.00 | 0.00 | 67 | 1011.6 |
| 20260503000004 | 17 | 226 | 8.0 | 17.7 | 0.00 | 0.00 | 0.00 | 67 | 1011.7 |
| 20260502235504 | 17 | 269 | 9.7 | 17.7 | 0.00 | 0.00 | 0.00 | 67 | 1011.7 |
| 20260502235005 | 17 | 248 | 9.7 | 19.3 | 0.00 | 0.00 | 0.00 | 67 | 1011.7 |
| 20260502234004 | 17 | 289 | 9.7 | 17.7 | 0.00 | 0.00 | 0.00 | 68 | 1011.8 |
| 20260502233504 | 16 | 272 | 8.0 | 22.5 | 0.00 | 0.00 | 0.00 | 69 | 1011.8 |
| 20260502233005 | 16 | 245 | 9.7 | 22.5 | 0.00 | 0.00 | 0.00 | 68 | 1011.8 |
| 20260502232504 | 17 | 261 | 9.7 | 19.3 | 0.00 | 0.00 | 0.00 | 67 | 1011.9 |
| 20260502232004 | 17 | 258 | 9.7 | 19.3 | 0.00 | 0.00 | 0.00 | 67 | 1012.0 |
| 20260502231500 | 17 | 225 | 9.7 | 17.7 | 0.00 | 0.00 | 0.00 | 67 | 1011.9 |
| 20260502231005 | 17 | 250 | 8.0 | 17.7 | 0.00 | 0.00 | 0.00 | 68 | 1012.0 |
| 20260502230502 | 17 | 311 | 9.7 | 17.7 | 0.00 | 0.00 | 0.00 | 69 | 1012.1 |
| 20260502225005 | 17 | 288 | 9.7 | 19.3 | 0.00 | 0.00 | 0.00 | 68 | 1012.3 |
| 20260502224505 | 17 | 209 | 8.0 | 19.3 | 0.00 | 0.00 | 0.00 | 68 | 1012.3 |
| 20260502224005 | 17 | 255 | 9.7 | 20.9 | 0.00 | 0.00 | 0.00 | 68 | 1012.4 |
| 20260502223504 | 17 | 242 | 9.7 | 20.9 | 0.00 | 0.00 | 0.00 | 69 | 1012.5 |
| 20260502222504 | 17 | 215 | 9.7 | 17.7 | 0.00 | 0.00 | 0.00 | 70 | 1012.5 |
| 20260502222005 | 16 | 268 | 6.4 | 16.1 | 0.00 | 0.00 | 0.00 | 72 | 1012.6 |
| 20260502221504 | 16 | 209 | 8.0 | 14.5 | 0.00 | 0.00 | 0.00 | 73 | 1012.7 |
| 20260502221005 | 16 | 225 | 8.0 | 14.5 | 0.00 | 0.00 | 0.00 | 73 | 1012.7 |
| 20260502220504 | 16 | 300 | 8.0 | 14.5 | 0.00 | 0.00 | 0.00 | 73 | 1012.8 |
| 20260502220005 | 16 | 224 | 6.4 | 14.5 | 0.00 | 0.00 | 0.00 | 73 | 1012.8 |
| 20260502215505 | 16 | 243 | 6.4 | 12.9 | 0.00 | 0.00 | 0.00 | 74 | 1012.9 |
| 20260502215005 | 16 | 229 | 8.0 | 14.5 | 0.00 | 0.00 | 0.00 | 74 | 1013.0 |
| 20260502214504 | 16 | 260 | 6.4 | 17.7 | 0.00 | 0.00 | 0.00 | 74 | 1013.0 |
| 20260502214005 | 16 | 218 | 6.4 | 17.7 | 0.00 | 0.00 | 0.00 | 75 | 1012.9 |
| 20260502213505 | 16 | 275 | 9.7 | 14.5 | 0.00 | 0.00 | 0.00 | 74 | 1013.0 |
| 20260502213005 | 16 | 209 | 8.0 | 19.3 | 0.00 | 0.00 | 0.00 | 75 | 1013.0 |
| 20260502212504 | 16 | 226 | 11.3 | 19.3 | 0.00 | 0.00 | 0.00 | 74 | 1013.0 |
| 20260502212005 | 16 | 222 | 8.0 | 14.5 | 0.00 | 0.00 | 0.00 | 74 | 1013.1 |
| 20260502211505 | 16 | 284 | 3.2 | 11.3 | 0.00 | 0.00 | 0.00 | 75 | 1013.2 |
| 20260502211005 | 16 | 185 | 3.2 | 9.7 | 0.00 | 0.00 | 0.00 | 74 | 1013.1 |
| 20260502210504 | 16 | 231 | 4.8 | 9.7 | 0.00 | 0.00 | 0.00 | 75 | 1013.2 |
| 20260502210005 | 16 | 242 | 3.2 | 11.3 | 0.00 | 0.00 | 0.00 | 75 | 1013.2 |
| 20260502205505 | 16 | 213 | 3.2 | 11.3 | 0.00 | 0.00 | 0.00 | 75 | 1013.2 |
| 20260502205005 | 16 | 233 | 4.8 | 12.9 | 0.00 | 0.00 | 0.00 | 75 | 1013.3 |
| 20260502204504 | 16 | 234 | 6.4 | 12.9 | 0.00 | 0.00 | 0.00 | 74 | 1013.3 |
| 20260502203504 | 16 | 271 | 4.8 | 11.3 | 0.00 | 0.00 | 0.00 | 75 | 1013.3 |
| 20260502203005 | 16 | 200 | 3.2 | 8.0 | 0.00 | 0.00 | 0.00 | 75 | 1013.3 |
| 20260502202504 | 16 | 227 | 4.8 | 8.0 | 0.00 | 0.00 | 0.00 | 75 | 1013.4 |
| 20260502202005 | 16 | 128 | 3.2 | 16.1 | 0.00 | 0.00 | 0.00 | 75 | 1013.4 |
| 20260502201505 | 16 | 211 | 4.8 | 19.3 | 0.00 | 0.00 | 0.00 | 75 | 1013.3 |
| 20260502201005 | 16 | 96 | 9.7 | 19.3 | 0.00 | 0.00 | 0.00 | 75 | 1013.4 |
| 20260502200505 | 16 | 107 | 11.3 | 17.7 | 0.00 | 0.00 | 0.00 | 76 | 1013.4 |
| 20260502200005 | 16 | 132 | 9.7 | 20.9 | 0.00 | 0.00 | 0.00 | 75 | 1013.3 |
| 20260502195505 | 16 | 107 | 14.5 | 22.5 | 0.00 | 0.00 | 0.00 | 75 | 1013.3 |
| 20260502195007 | 16 | 101 | 16.1 | 22.5 | 0.00 | 0.00 | 0.00 | 74 | 1013.4 |
| 20260502194007 | 16 | 104 | 12.9 | 20.9 | 0.00 | 0.00 | 0.00 | 74 | 1013.4 |
| 20260502193504 | 16 | 113 | 11.3 | 19.3 | 0.00 | 0.00 | 0.00 | 74 | 1013.4 |
| 20260502193007 | 16 | 111 | 12.9 | 19.3 | 0.00 | 0.00 | 0.00 | 73 | 1013.5 |
| 20260502192008 | 17 | 105 | 8.0 | 16.1 | 0.00 | 0.00 | 0.00 | 74 | 1013.5 |
| 20260502191504 | 16 | 52 | 6.4 | 14.5 | 0.00 | 0.00 | 0.00 | 74 | 1013.5 |
| 20260502191005 | 16 | 126 | 6.4 | 14.5 | 0.00 | 0.00 | 0.00 | 74 | 1013.7 |
| 20260502190505 | 16 | 111 | 4.8 | 11.3 | 0.00 | 0.00 | 0.00 | 75 | 1013.7 |
| 20260502190005 | 16 | 113 | 3.2 | 11.3 | 0.00 | 0.00 | 0.00 | 74 | 1013.7 |
| 20260502185504 | 16 | 97 | 6.4 | 9.7 | 0.00 | 0.00 | 0.00 | 74 | 1013.6 |
| 20260502185007 | 16 | 236 | 4.8 | 8.0 | 0.00 | 0.00 | 0.00 | 73 | 1013.6 |
| 20260502184504 | 16 | 102 | 1.6 | 6.4 | 0.00 | 0.00 | 0.00 | 75 | 1013.6 |
| 20260502184009 | 16 | 103 | 1.6 | 8.0 | 0.00 | 0.00 | 0.00 | 76 | 1013.6 |
| 20260502183503 | 15 | 76 | 4.8 | 8.0 | 0.00 | 0.00 | 0.00 | 75 | 1013.7 |